sensor_id;sensor_type;location;lat;lon;timestamp;P1;durP1;ratioP1;P2;durP2;ratioP2
1128;SDS011;553;51.038;7.216;2023-07-02T00:02:26;7.77;;;5.20;;
1128;SDS011;553;51.038;7.216;2023-07-02T00:04:53;8.57;;;4.93;;
1128;SDS011;553;51.038;7.216;2023-07-02T00:07:20;6.97;;;4.10;;
1128;SDS011;553;51.038;7.216;2023-07-02T00:09:46;7.70;;;4.63;;
1128;SDS011;553;51.038;7.216;2023-07-02T00:12:13;8.27;;;4.77;;
1128;SDS011;553;51.038;7.216;2023-07-02T00:14:40;9.90;;;5.17;;
1128;SDS011;553;51.038;7.216;2023-07-02T00:17:07;9.20;;;4.57;;
1128;SDS011;553;51.038;7.216;2023-07-02T00:19:34;5.53;;;4.20;;
1128;SDS011;553;51.038;7.216;2023-07-02T00:22:00;6.80;;;4.80;;
1128;SDS011;553;51.038;7.216;2023-07-02T00:24:28;13.40;;;5.40;;
1128;SDS011;553;51.038;7.216;2023-07-02T00:26:55;9.70;;;4.50;;
1128;SDS011;553;51.038;7.216;2023-07-02T00:29:22;11.07;;;4.87;;
1128;SDS011;553;51.038;7.216;2023-07-02T00:31:49;12.70;;;5.07;;
1128;SDS011;553;51.038;7.216;2023-07-02T00:34:16;7.10;;;4.90;;
1128;SDS011;553;51.038;7.216;2023-07-02T00:36:42;12.27;;;4.70;;
1128;SDS011;553;51.038;7.216;2023-07-02T00:39:09;8.73;;;5.30;;
1128;SDS011;553;51.038;7.216;2023-07-02T00:41:38;6.03;;;4.10;;
1128;SDS011;553;51.038;7.216;2023-07-02T00:44:05;10.13;;;4.67;;
1128;SDS011;553;51.038;7.216;2023-07-02T00:46:32;16.33;;;5.10;;
1128;SDS011;553;51.038;7.216;2023-07-02T00:48:59;7.83;;;4.67;;
1128;SDS011;553;51.038;7.216;2023-07-02T00:51:28;8.03;;;4.80;;
1128;SDS011;553;51.038;7.216;2023-07-02T00:53:55;10.10;;;4.83;;
1128;SDS011;553;51.038;7.216;2023-07-02T00:56:24;10.10;;;5.10;;
1128;SDS011;553;51.038;7.216;2023-07-02T00:58:55;7.03;;;4.57;;
1128;SDS011;553;51.038;7.216;2023-07-02T01:01:25;12.57;;;4.73;;
1128;SDS011;553;51.038;7.216;2023-07-02T01:04:02;10.13;;;5.60;;
1128;SDS011;553;51.038;7.216;2023-07-02T01:06:33;12.77;;;5.67;;
1128;SDS011;553;51.038;7.216;2023-07-02T01:09:02;13.77;;;6.10;;
1128;SDS011;553;51.038;7.216;2023-07-02T01:11:38;9.50;;;5.13;;
1128;SDS011;553;51.038;7.216;2023-07-02T01:14:18;10.60;;;5.90;;
1128;SDS011;553;51.038;7.216;2023-07-02T01:16:56;11.40;;;5.10;;
1128;SDS011;553;51.038;7.216;2023-07-02T01:22:23;11.80;;;6.63;;
1128;SDS011;553;51.038;7.216;2023-07-02T01:24:52;9.30;;;6.13;;
1128;SDS011;553;51.038;7.216;2023-07-02T01:27:20;10.13;;;5.70;;
1128;SDS011;553;51.038;7.216;2023-07-02T01:29:51;8.23;;;6.23;;
1128;SDS011;553;51.038;7.216;2023-07-02T01:32:19;8.03;;;5.67;;
1128;SDS011;553;51.038;7.216;2023-07-02T01:34:46;9.53;;;5.23;;
1128;SDS011;553;51.038;7.216;2023-07-02T01:37:19;10.53;;;5.30;;
1128;SDS011;553;51.038;7.216;2023-07-02T01:39:47;11.93;;;6.30;;
1128;SDS011;553;51.038;7.216;2023-07-02T01:42:14;17.73;;;6.97;;
1128;SDS011;553;51.038;7.216;2023-07-02T01:44:43;11.73;;;5.80;;
1128;SDS011;553;51.038;7.216;2023-07-02T01:47:11;9.60;;;5.93;;
1128;SDS011;553;51.038;7.216;2023-07-02T01:49:38;10.50;;;5.67;;
1128;SDS011;553;51.038;7.216;2023-07-02T01:52:06;11.17;;;5.70;;
1128;SDS011;553;51.038;7.216;2023-07-02T01:54:33;13.30;;;6.70;;
1128;SDS011;553;51.038;7.216;2023-07-02T01:57:00;12.73;;;6.33;;
1128;SDS011;553;51.038;7.216;2023-07-02T01:59:27;12.33;;;7.00;;
1128;SDS011;553;51.038;7.216;2023-07-02T02:01:54;13.43;;;7.00;;
1128;SDS011;553;51.038;7.216;2023-07-02T02:04:21;12.07;;;6.40;;
1128;SDS011;553;51.038;7.216;2023-07-02T02:06:48;10.83;;;6.83;;
1128;SDS011;553;51.038;7.216;2023-07-02T02:09:14;15.93;;;6.80;;
1128;SDS011;553;51.038;7.216;2023-07-02T02:11:43;18.90;;;7.50;;
1128;SDS011;553;51.038;7.216;2023-07-02T02:14:11;11.00;;;6.43;;
1128;SDS011;553;51.038;7.216;2023-07-02T02:16:38;14.17;;;7.87;;
1128;SDS011;553;51.038;7.216;2023-07-02T02:19:05;16.83;;;7.80;;
1128;SDS011;553;51.038;7.216;2023-07-02T02:21:32;12.77;;;6.90;;
1128;SDS011;553;51.038;7.216;2023-07-02T02:23:59;11.23;;;8.17;;
1128;SDS011;553;51.038;7.216;2023-07-02T02:26:26;12.40;;;7.13;;
1128;SDS011;553;51.038;7.216;2023-07-02T02:28:53;14.57;;;8.83;;
1128;SDS011;553;51.038;7.216;2023-07-02T02:31:20;14.93;;;8.43;;
1128;SDS011;553;51.038;7.216;2023-07-02T02:33:47;19.20;;;8.93;;
1128;SDS011;553;51.038;7.216;2023-07-02T02:36:15;15.23;;;8.07;;
1128;SDS011;553;51.038;7.216;2023-07-02T02:38:44;16.60;;;7.77;;
1128;SDS011;553;51.038;7.216;2023-07-02T02:41:10;16.73;;;7.93;;
1128;SDS011;553;51.038;7.216;2023-07-02T02:43:42;13.40;;;8.63;;
1128;SDS011;553;51.038;7.216;2023-07-02T02:46:11;19.10;;;8.47;;
1128;SDS011;553;51.038;7.216;2023-07-02T02:48:38;13.93;;;8.80;;
1128;SDS011;553;51.038;7.216;2023-07-02T02:51:05;14.00;;;8.80;;
1128;SDS011;553;51.038;7.216;2023-07-02T02:53:32;16.53;;;8.80;;
1128;SDS011;553;51.038;7.216;2023-07-02T02:55:59;14.80;;;7.90;;
1128;SDS011;553;51.038;7.216;2023-07-02T02:58:25;13.20;;;7.87;;
1128;SDS011;553;51.038;7.216;2023-07-02T03:00:54;16.80;;;8.87;;
1128;SDS011;553;51.038;7.216;2023-07-02T03:03:21;12.60;;;8.07;;
1128;SDS011;553;51.038;7.216;2023-07-02T03:05:50;13.47;;;8.50;;
1128;SDS011;553;51.038;7.216;2023-07-02T03:08:17;14.63;;;8.87;;
1128;SDS011;553;51.038;7.216;2023-07-02T03:10:44;13.13;;;8.53;;
1128;SDS011;553;51.038;7.216;2023-07-02T03:13:11;17.00;;;9.00;;
1128;SDS011;553;51.038;7.216;2023-07-02T03:15:38;16.10;;;9.40;;
1128;SDS011;553;51.038;7.216;2023-07-02T03:18:05;15.77;;;8.90;;
1128;SDS011;553;51.038;7.216;2023-07-02T03:20:32;21.30;;;10.50;;
1128;SDS011;553;51.038;7.216;2023-07-02T03:22:59;13.80;;;9.37;;
1128;SDS011;553;51.038;7.216;2023-07-02T03:25:26;19.50;;;10.80;;
1128;SDS011;553;51.038;7.216;2023-07-02T03:27:52;18.30;;;12.07;;
1128;SDS011;553;51.038;7.216;2023-07-02T03:30:19;22.87;;;11.83;;
1128;SDS011;553;51.038;7.216;2023-07-02T03:32:46;17.60;;;10.00;;
1128;SDS011;553;51.038;7.216;2023-07-02T03:35:13;25.73;;;11.30;;
1128;SDS011;553;51.038;7.216;2023-07-02T03:37:40;23.27;;;11.40;;
1128;SDS011;553;51.038;7.216;2023-07-02T03:40:10;18.17;;;10.93;;
1128;SDS011;553;51.038;7.216;2023-07-02T03:42:37;22.80;;;11.83;;
1128;SDS011;553;51.038;7.216;2023-07-02T03:45:04;19.67;;;11.30;;
1128;SDS011;553;51.038;7.216;2023-07-02T03:47:31;24.50;;;12.30;;
1128;SDS011;553;51.038;7.216;2023-07-02T03:49:57;23.57;;;11.10;;
1128;SDS011;553;51.038;7.216;2023-07-02T03:52:24;18.73;;;11.73;;
1128;SDS011;553;51.038;7.216;2023-07-02T03:54:51;22.00;;;12.63;;
1128;SDS011;553;51.038;7.216;2023-07-02T03:57:18;23.83;;;12.73;;
1128;SDS011;553;51.038;7.216;2023-07-02T03:59:45;27.57;;;13.80;;
1128;SDS011;553;51.038;7.216;2023-07-02T04:02:12;22.00;;;13.43;;
1128;SDS011;553;51.038;7.216;2023-07-02T04:04:39;21.27;;;12.10;;
1128;SDS011;553;51.038;7.216;2023-07-02T04:07:06;23.37;;;13.10;;
1128;SDS011;553;51.038;7.216;2023-07-02T04:09:33;22.83;;;12.83;;
1128;SDS011;553;51.038;7.216;2023-07-02T04:12:00;24.33;;;12.67;;
1128;SDS011;553;51.038;7.216;2023-07-02T04:14:27;27.23;;;14.33;;
1128;SDS011;553;51.038;7.216;2023-07-02T04:16:54;23.57;;;14.83;;
1128;SDS011;553;51.038;7.216;2023-07-02T04:19:21;29.67;;;14.43;;
1128;SDS011;553;51.038;7.216;2023-07-02T04:21:47;22.97;;;15.30;;
1128;SDS011;553;51.038;7.216;2023-07-02T04:24:16;26.37;;;14.60;;
1128;SDS011;553;51.038;7.216;2023-07-02T04:26:43;22.77;;;13.87;;
1128;SDS011;553;51.038;7.216;2023-07-02T04:29:30;28.10;;;15.47;;
1128;SDS011;553;51.038;7.216;2023-07-02T04:31:57;27.70;;;13.90;;
1128;SDS011;553;51.038;7.216;2023-07-02T04:34:24;29.63;;;14.70;;
1128;SDS011;553;51.038;7.216;2023-07-02T04:36:51;27.13;;;15.50;;
1128;SDS011;553;51.038;7.216;2023-07-02T04:39:19;25.93;;;14.57;;
1128;SDS011;553;51.038;7.216;2023-07-02T04:41:46;23.80;;;14.20;;
1128;SDS011;553;51.038;7.216;2023-07-02T04:44:15;30.83;;;15.20;;
1128;SDS011;553;51.038;7.216;2023-07-02T04:46:42;29.90;;;14.47;;
1128;SDS011;553;51.038;7.216;2023-07-02T04:49:08;32.93;;;15.63;;
1128;SDS011;553;51.038;7.216;2023-07-02T04:51:35;29.07;;;17.03;;
1128;SDS011;553;51.038;7.216;2023-07-02T04:54:02;29.30;;;15.40;;
1128;SDS011;553;51.038;7.216;2023-07-02T04:56:29;29.37;;;16.80;;
1128;SDS011;553;51.038;7.216;2023-07-02T04:58:55;30.00;;;16.57;;
1128;SDS011;553;51.038;7.216;2023-07-02T05:01:22;28.90;;;15.27;;
1128;SDS011;553;51.038;7.216;2023-07-02T05:03:49;33.23;;;15.13;;
1128;SDS011;553;51.038;7.216;2023-07-02T05:06:16;31.80;;;17.30;;
1128;SDS011;553;51.038;7.216;2023-07-02T05:08:42;31.50;;;16.43;;
1128;SDS011;553;51.038;7.216;2023-07-02T05:11:10;32.00;;;17.30;;
1128;SDS011;553;51.038;7.216;2023-07-02T05:13:37;29.03;;;17.63;;
1128;SDS011;553;51.038;7.216;2023-07-02T05:16:04;30.50;;;17.30;;
1128;SDS011;553;51.038;7.216;2023-07-02T05:18:30;30.40;;;16.90;;
1128;SDS011;553;51.038;7.216;2023-07-02T05:21:00;34.63;;;19.00;;
1128;SDS011;553;51.038;7.216;2023-07-02T05:23:27;31.47;;;17.27;;
1128;SDS011;553;51.038;7.216;2023-07-02T05:25:53;37.67;;;18.23;;
1128;SDS011;553;51.038;7.216;2023-07-02T05:28:20;33.27;;;17.87;;
1128;SDS011;553;51.038;7.216;2023-07-02T05:30:47;31.40;;;18.13;;
1128;SDS011;553;51.038;7.216;2023-07-02T05:33:14;30.20;;;17.23;;
1128;SDS011;553;51.038;7.216;2023-07-02T05:35:41;35.37;;;19.17;;
1128;SDS011;553;51.038;7.216;2023-07-02T05:38:07;35.17;;;18.27;;
1128;SDS011;553;51.038;7.216;2023-07-02T05:40:34;33.00;;;19.10;;
1128;SDS011;553;51.038;7.216;2023-07-02T05:43:01;30.13;;;18.40;;
1128;SDS011;553;51.038;7.216;2023-07-02T05:45:28;37.43;;;20.00;;
1128;SDS011;553;51.038;7.216;2023-07-02T05:47:55;42.50;;;19.67;;
1128;SDS011;553;51.038;7.216;2023-07-02T05:50:23;33.70;;;18.90;;
1128;SDS011;553;51.038;7.216;2023-07-02T05:52:50;36.00;;;19.93;;
1128;SDS011;553;51.038;7.216;2023-07-02T05:55:16;32.70;;;20.27;;
1128;SDS011;553;51.038;7.216;2023-07-02T05:57:43;36.00;;;19.93;;
1128;SDS011;553;51.038;7.216;2023-07-02T06:00:10;31.03;;;17.83;;
1128;SDS011;553;51.038;7.216;2023-07-02T06:02:38;35.67;;;20.20;;
1128;SDS011;553;51.038;7.216;2023-07-02T06:05:05;31.03;;;18.63;;
1128;SDS011;553;51.038;7.216;2023-07-02T06:07:32;33.43;;;18.57;;
1128;SDS011;553;51.038;7.216;2023-07-02T06:09:59;32.13;;;19.30;;
1128;SDS011;553;51.038;7.216;2023-07-02T06:12:25;34.83;;;20.90;;
1128;SDS011;553;51.038;7.216;2023-07-02T06:14:52;26.97;;;18.20;;
1128;SDS011;553;51.038;7.216;2023-07-02T06:17:19;34.03;;;19.87;;
1128;SDS011;553;51.038;7.216;2023-07-02T06:19:47;32.30;;;19.40;;
1128;SDS011;553;51.038;7.216;2023-07-02T06:22:14;36.40;;;20.00;;
1128;SDS011;553;51.038;7.216;2023-07-02T06:24:41;33.00;;;20.43;;
1128;SDS011;553;51.038;7.216;2023-07-02T06:27:08;32.10;;;21.17;;
1128;SDS011;553;51.038;7.216;2023-07-02T06:29:34;35.83;;;19.83;;
1128;SDS011;553;51.038;7.216;2023-07-02T06:32:01;41.00;;;20.70;;
1128;SDS011;553;51.038;7.216;2023-07-02T06:34:28;35.03;;;21.57;;
1128;SDS011;553;51.038;7.216;2023-07-02T06:36:55;33.60;;;21.00;;
1128;SDS011;553;51.038;7.216;2023-07-02T06:39:22;36.80;;;21.20;;
1128;SDS011;553;51.038;7.216;2023-07-02T06:41:48;36.10;;;20.57;;
1128;SDS011;553;51.038;7.216;2023-07-02T06:44:16;36.13;;;19.20;;
1128;SDS011;553;51.038;7.216;2023-07-02T06:46:45;33.57;;;20.77;;
1128;SDS011;553;51.038;7.216;2023-07-02T06:49:12;30.53;;;18.90;;
1128;SDS011;553;51.038;7.216;2023-07-02T06:51:39;37.70;;;20.27;;
1128;SDS011;553;51.038;7.216;2023-07-02T06:54:07;38.97;;;21.57;;
1128;SDS011;553;51.038;7.216;2023-07-02T06:56:34;31.60;;;20.00;;
1128;SDS011;553;51.038;7.216;2023-07-02T06:59:01;40.07;;;21.30;;
1128;SDS011;553;51.038;7.216;2023-07-02T07:01:28;31.07;;;18.20;;
1128;SDS011;553;51.038;7.216;2023-07-02T07:03:55;34.80;;;18.27;;
1128;SDS011;553;51.038;7.216;2023-07-02T07:06:21;33.13;;;18.97;;
1128;SDS011;553;51.038;7.216;2023-07-02T07:08:48;31.83;;;18.60;;
1128;SDS011;553;51.038;7.216;2023-07-02T07:11:15;29.10;;;16.30;;
1128;SDS011;553;51.038;7.216;2023-07-02T07:13:42;32.60;;;18.60;;
1128;SDS011;553;51.038;7.216;2023-07-02T07:16:10;28.43;;;17.90;;
1128;SDS011;553;51.038;7.216;2023-07-02T07:18:37;35.37;;;18.13;;
1128;SDS011;553;51.038;7.216;2023-07-02T07:21:04;33.67;;;18.40;;
1128;SDS011;553;51.038;7.216;2023-07-02T07:23:31;33.83;;;17.27;;
1128;SDS011;553;51.038;7.216;2023-07-02T07:25:57;36.27;;;18.30;;
1128;SDS011;553;51.038;7.216;2023-07-02T07:28:24;27.33;;;15.50;;
1128;SDS011;553;51.038;7.216;2023-07-02T07:30:51;29.27;;;16.20;;
1128;SDS011;553;51.038;7.216;2023-07-02T07:33:18;30.50;;;17.00;;
1128;SDS011;553;51.038;7.216;2023-07-02T07:35:45;34.67;;;16.57;;
1128;SDS011;553;51.038;7.216;2023-07-02T07:38:13;28.37;;;16.73;;
1128;SDS011;553;51.038;7.216;2023-07-02T07:40:40;35.90;;;18.30;;
1128;SDS011;553;51.038;7.216;2023-07-02T07:43:08;31.27;;;17.70;;
1128;SDS011;553;51.038;7.216;2023-07-02T07:45:35;32.87;;;18.13;;
1128;SDS011;553;51.038;7.216;2023-07-02T07:48:03;34.20;;;18.50;;
1128;SDS011;553;51.038;7.216;2023-07-02T07:50:33;29.07;;;16.50;;
1128;SDS011;553;51.038;7.216;2023-07-02T07:52:59;32.00;;;17.70;;
1128;SDS011;553;51.038;7.216;2023-07-02T07:55:26;30.13;;;16.87;;
1128;SDS011;553;51.038;7.216;2023-07-02T07:57:53;25.63;;;16.33;;
1128;SDS011;553;51.038;7.216;2023-07-02T08:00:20;33.40;;;17.63;;
1128;SDS011;553;51.038;7.216;2023-07-02T08:02:47;27.00;;;15.87;;
1128;SDS011;553;51.038;7.216;2023-07-02T08:05:14;27.40;;;15.57;;
1128;SDS011;553;51.038;7.216;2023-07-02T08:07:41;30.17;;;16.93;;
1128;SDS011;553;51.038;7.216;2023-07-02T08:10:08;27.80;;;16.50;;
1128;SDS011;553;51.038;7.216;2023-07-02T08:12:35;26.50;;;15.80;;
1128;SDS011;553;51.038;7.216;2023-07-02T08:15:02;24.70;;;15.20;;
1128;SDS011;553;51.038;7.216;2023-07-02T08:17:29;33.00;;;16.27;;
1128;SDS011;553;51.038;7.216;2023-07-02T08:19:57;27.97;;;15.77;;
1128;SDS011;553;51.038;7.216;2023-07-02T08:22:24;28.43;;;16.57;;
1128;SDS011;553;51.038;7.216;2023-07-02T08:24:51;26.57;;;16.20;;
1128;SDS011;553;51.038;7.216;2023-07-02T08:27:18;23.50;;;14.57;;
1128;SDS011;553;51.038;7.216;2023-07-02T08:29:46;28.10;;;16.17;;
1128;SDS011;553;51.038;7.216;2023-07-02T08:32:13;22.00;;;15.33;;
1128;SDS011;553;51.038;7.216;2023-07-02T08:34:41;29.50;;;16.30;;
1128;SDS011;553;51.038;7.216;2023-07-02T08:37:08;27.70;;;15.57;;
1128;SDS011;553;51.038;7.216;2023-07-02T08:39:35;26.77;;;14.93;;
1128;SDS011;553;51.038;7.216;2023-07-02T08:42:03;28.17;;;16.10;;
1128;SDS011;553;51.038;7.216;2023-07-02T08:44:30;29.03;;;16.50;;
1128;SDS011;553;51.038;7.216;2023-07-02T08:46:57;28.27;;;16.73;;
1128;SDS011;553;51.038;7.216;2023-07-02T08:49:24;32.40;;;16.47;;
1128;SDS011;553;51.038;7.216;2023-07-02T08:51:51;28.80;;;15.40;;
1128;SDS011;553;51.038;7.216;2023-07-02T08:54:18;29.87;;;15.37;;
1128;SDS011;553;51.038;7.216;2023-07-02T08:56:45;26.50;;;15.50;;
1128;SDS011;553;51.038;7.216;2023-07-02T08:59:13;25.90;;;15.43;;
1128;SDS011;553;51.038;7.216;2023-07-02T09:01:46;26.03;;;15.20;;
1128;SDS011;553;51.038;7.216;2023-07-02T09:04:24;25.70;;;15.83;;
1128;SDS011;553;51.038;7.216;2023-07-02T09:07:08;25.60;;;14.97;;
1128;SDS011;553;51.038;7.216;2023-07-02T09:09:45;29.50;;;15.63;;
1128;SDS011;553;51.038;7.216;2023-07-02T09:12:29;23.07;;;13.90;;
1128;SDS011;553;51.038;7.216;2023-07-02T09:14:58;27.07;;;13.50;;
1128;SDS011;553;51.038;7.216;2023-07-02T09:17:31;21.43;;;13.33;;
1128;SDS011;553;51.038;7.216;2023-07-02T09:20:00;23.07;;;13.60;;
1128;SDS011;553;51.038;7.216;2023-07-02T09:22:29;23.03;;;13.43;;
1128;SDS011;553;51.038;7.216;2023-07-02T09:24:59;24.13;;;13.20;;
1128;SDS011;553;51.038;7.216;2023-07-02T09:27:36;30.33;;;13.93;;
1128;SDS011;553;51.038;7.216;2023-07-02T09:32:39;26.37;;;14.17;;
1128;SDS011;553;51.038;7.216;2023-07-02T09:35:06;28.73;;;14.00;;
1128;SDS011;553;51.038;7.216;2023-07-02T09:37:33;25.97;;;13.67;;
1128;SDS011;553;51.038;7.216;2023-07-02T09:40:00;24.93;;;13.13;;
1128;SDS011;553;51.038;7.216;2023-07-02T09:42:27;22.97;;;14.33;;
1128;SDS011;553;51.038;7.216;2023-07-02T09:44:55;26.10;;;14.13;;
1128;SDS011;553;51.038;7.216;2023-07-02T09:47:23;20.40;;;12.50;;
1128;SDS011;553;51.038;7.216;2023-07-02T09:49:53;27.23;;;14.27;;
1128;SDS011;553;51.038;7.216;2023-07-02T09:52:23;27.23;;;13.83;;
1128;SDS011;553;51.038;7.216;2023-07-02T09:54:52;22.83;;;12.77;;
1128;SDS011;553;51.038;7.216;2023-07-02T09:57:18;19.87;;;12.20;;
1128;SDS011;553;51.038;7.216;2023-07-02T09:59:45;23.10;;;12.80;;
1128;SDS011;553;51.038;7.216;2023-07-02T10:02:12;22.30;;;13.73;;
1128;SDS011;553;51.038;7.216;2023-07-02T10:04:40;24.87;;;14.40;;
1128;SDS011;553;51.038;7.216;2023-07-02T10:07:12;26.13;;;14.33;;
1128;SDS011;553;51.038;7.216;2023-07-02T10:09:51;25.37;;;14.57;;
1128;SDS011;553;51.038;7.216;2023-07-02T10:12:22;24.13;;;14.83;;
1128;SDS011;553;51.038;7.216;2023-07-02T10:14:49;30.20;;;14.60;;
1128;SDS011;553;51.038;7.216;2023-07-02T10:17:24;31.90;;;15.30;;
1128;SDS011;553;51.038;7.216;2023-07-02T10:19:57;24.13;;;14.53;;
1128;SDS011;553;51.038;7.216;2023-07-02T10:22:44;23.60;;;15.27;;
1128;SDS011;553;51.038;7.216;2023-07-02T10:25:26;27.07;;;14.93;;
1128;SDS011;553;51.038;7.216;2023-07-02T10:27:58;21.70;;;14.33;;
1128;SDS011;553;51.038;7.216;2023-07-02T10:30:33;27.73;;;15.47;;
1128;SDS011;553;51.038;7.216;2023-07-02T10:33:08;23.00;;;14.73;;
1128;SDS011;553;51.038;7.216;2023-07-02T10:35:43;25.83;;;15.50;;
1128;SDS011;553;51.038;7.216;2023-07-02T10:38:13;25.70;;;15.33;;
1128;SDS011;553;51.038;7.216;2023-07-02T10:40:42;29.37;;;16.53;;
1128;SDS011;553;51.038;7.216;2023-07-02T10:43:10;31.37;;;15.43;;
1128;SDS011;553;51.038;7.216;2023-07-02T10:45:37;26.17;;;15.27;;
1128;SDS011;553;51.038;7.216;2023-07-02T10:48:04;28.77;;;15.77;;
1128;SDS011;553;51.038;7.216;2023-07-02T10:50:35;22.27;;;14.67;;
1128;SDS011;553;51.038;7.216;2023-07-02T10:53:02;24.10;;;16.63;;
1128;SDS011;553;51.038;7.216;2023-07-02T10:55:29;30.27;;;15.77;;
1128;SDS011;553;51.038;7.216;2023-07-02T10:58:04;26.73;;;15.53;;
1128;SDS011;553;51.038;7.216;2023-07-02T11:00:32;25.90;;;16.30;;
1128;SDS011;553;51.038;7.216;2023-07-02T11:02:59;23.47;;;13.80;;
1128;SDS011;553;51.038;7.216;2023-07-02T11:05:26;27.70;;;14.70;;
1128;SDS011;553;51.038;7.216;2023-07-02T11:08:07;25.43;;;15.70;;
1128;SDS011;553;51.038;7.216;2023-07-02T11:10:35;21.30;;;13.20;;
1128;SDS011;553;51.038;7.216;2023-07-02T11:13:14;21.50;;;13.90;;
1128;SDS011;553;51.038;7.216;2023-07-02T11:15:45;22.07;;;14.40;;
1128;SDS011;553;51.038;7.216;2023-07-02T11:18:14;26.07;;;15.00;;
1128;SDS011;553;51.038;7.216;2023-07-02T11:20:43;20.37;;;13.40;;
1128;SDS011;553;51.038;7.216;2023-07-02T11:23:21;22.87;;;14.70;;
1128;SDS011;553;51.038;7.216;2023-07-02T11:25:59;28.53;;;15.20;;
1128;SDS011;553;51.038;7.216;2023-07-02T11:28:27;29.17;;;15.17;;
1128;SDS011;553;51.038;7.216;2023-07-02T11:30:55;20.50;;;13.90;;
1128;SDS011;553;51.038;7.216;2023-07-02T11:33:38;22.57;;;13.83;;
1128;SDS011;553;51.038;7.216;2023-07-02T11:36:07;21.80;;;13.87;;
1128;SDS011;553;51.038;7.216;2023-07-02T11:38:46;20.73;;;13.47;;
1128;SDS011;553;51.038;7.216;2023-07-02T11:41:12;23.87;;;13.77;;
1128;SDS011;553;51.038;7.216;2023-07-02T11:43:39;26.13;;;13.07;;
1128;SDS011;553;51.038;7.216;2023-07-02T11:46:06;25.67;;;15.43;;
1128;SDS011;553;51.038;7.216;2023-07-02T11:48:33;27.03;;;13.57;;
1128;SDS011;553;51.038;7.216;2023-07-02T11:51:00;22.47;;;13.07;;
1128;SDS011;553;51.038;7.216;2023-07-02T11:53:26;22.77;;;13.60;;
1128;SDS011;553;51.038;7.216;2023-07-02T11:55:53;26.30;;;15.87;;
1128;SDS011;553;51.038;7.216;2023-07-02T11:58:20;26.50;;;15.63;;
1128;SDS011;553;51.038;7.216;2023-07-02T12:00:47;24.73;;;14.43;;
1128;SDS011;553;51.038;7.216;2023-07-02T12:03:13;22.87;;;15.03;;
1128;SDS011;553;51.038;7.216;2023-07-02T12:05:40;23.20;;;14.83;;
1128;SDS011;553;51.038;7.216;2023-07-02T12:08:07;29.70;;;16.00;;
1128;SDS011;553;51.038;7.216;2023-07-02T12:10:35;25.10;;;14.60;;
1128;SDS011;553;51.038;7.216;2023-07-02T12:13:04;22.60;;;14.30;;
1128;SDS011;553;51.038;7.216;2023-07-02T12:15:31;25.53;;;14.40;;
1128;SDS011;553;51.038;7.216;2023-07-02T12:17:57;22.30;;;13.23;;
1128;SDS011;553;51.038;7.216;2023-07-02T12:20:24;20.23;;;13.03;;
1128;SDS011;553;51.038;7.216;2023-07-02T12:22:51;29.37;;;15.03;;
1128;SDS011;553;51.038;7.216;2023-07-02T12:25:18;21.37;;;11.83;;
1128;SDS011;553;51.038;7.216;2023-07-02T12:27:45;21.47;;;13.50;;
1128;SDS011;553;51.038;7.216;2023-07-02T12:30:12;21.73;;;12.57;;
1128;SDS011;553;51.038;7.216;2023-07-02T12:32:43;18.33;;;12.03;;
1128;SDS011;553;51.038;7.216;2023-07-02T12:35:11;30.20;;;13.40;;
1128;SDS011;553;51.038;7.216;2023-07-02T12:37:44;23.87;;;12.00;;
1128;SDS011;553;51.038;7.216;2023-07-02T12:40:12;23.57;;;12.53;;
1128;SDS011;553;51.038;7.216;2023-07-02T12:42:43;19.90;;;12.50;;
1128;SDS011;553;51.038;7.216;2023-07-02T12:45:11;20.97;;;12.00;;
1128;SDS011;553;51.038;7.216;2023-07-02T12:47:39;20.37;;;12.70;;
1128;SDS011;553;51.038;7.216;2023-07-02T12:50:07;19.93;;;10.70;;
1128;SDS011;553;51.038;7.216;2023-07-02T12:52:34;24.97;;;12.20;;
1128;SDS011;553;51.038;7.216;2023-07-02T12:55:01;18.00;;;11.67;;
1128;SDS011;553;51.038;7.216;2023-07-02T12:57:28;15.77;;;10.10;;
1128;SDS011;553;51.038;7.216;2023-07-02T12:59:56;19.03;;;10.07;;
1128;SDS011;553;51.038;7.216;2023-07-02T13:02:23;15.47;;;9.53;;
1128;SDS011;553;51.038;7.216;2023-07-02T13:04:50;16.40;;;9.13;;
1128;SDS011;553;51.038;7.216;2023-07-02T13:07:17;19.87;;;9.60;;
1128;SDS011;553;51.038;7.216;2023-07-02T13:09:44;18.30;;;9.20;;
1128;SDS011;553;51.038;7.216;2023-07-02T13:12:11;17.10;;;8.50;;
1128;SDS011;553;51.038;7.216;2023-07-02T13:14:38;18.37;;;8.60;;
1128;SDS011;553;51.038;7.216;2023-07-02T13:17:05;13.27;;;8.60;;
1128;SDS011;553;51.038;7.216;2023-07-02T13:19:32;17.17;;;8.60;;
1128;SDS011;553;51.038;7.216;2023-07-02T13:21:59;16.33;;;8.87;;
1128;SDS011;553;51.038;7.216;2023-07-02T13:24:28;15.17;;;8.83;;
1128;SDS011;553;51.038;7.216;2023-07-02T13:27:01;15.90;;;8.90;;
1128;SDS011;553;51.038;7.216;2023-07-02T13:29:30;14.93;;;8.93;;
1128;SDS011;553;51.038;7.216;2023-07-02T13:31:57;15.80;;;9.23;;
1128;SDS011;553;51.038;7.216;2023-07-02T13:34:24;16.07;;;9.40;;
1128;SDS011;553;51.038;7.216;2023-07-02T13:36:51;17.43;;;9.53;;
1128;SDS011;553;51.038;7.216;2023-07-02T13:39:18;19.57;;;10.00;;
1128;SDS011;553;51.038;7.216;2023-07-02T13:41:45;13.97;;;10.00;;
1128;SDS011;553;51.038;7.216;2023-07-02T13:44:11;17.80;;;9.63;;
1128;SDS011;553;51.038;7.216;2023-07-02T13:46:38;17.23;;;10.13;;
1128;SDS011;553;51.038;7.216;2023-07-02T13:49:05;19.80;;;11.00;;
1128;SDS011;553;51.038;7.216;2023-07-02T13:51:32;16.37;;;9.80;;
1128;SDS011;553;51.038;7.216;2023-07-02T13:53:59;16.97;;;9.97;;
1128;SDS011;553;51.038;7.216;2023-07-02T13:56:25;18.70;;;10.07;;
1128;SDS011;553;51.038;7.216;2023-07-02T14:01:22;17.60;;;9.70;;
1128;SDS011;553;51.038;7.216;2023-07-02T14:03:50;20.03;;;11.70;;
1128;SDS011;553;51.038;7.216;2023-07-02T14:06:17;18.43;;;10.60;;
1128;SDS011;553;51.038;7.216;2023-07-02T14:08:44;17.40;;;10.50;;
1128;SDS011;553;51.038;7.216;2023-07-02T14:11:14;16.30;;;10.43;;
1128;SDS011;553;51.038;7.216;2023-07-02T14:13:41;18.30;;;10.90;;
1128;SDS011;553;51.038;7.216;2023-07-02T14:16:08;17.60;;;11.27;;
1128;SDS011;553;51.038;7.216;2023-07-02T14:18:35;16.83;;;10.57;;
1128;SDS011;553;51.038;7.216;2023-07-02T14:21:01;20.87;;;11.53;;
1128;SDS011;553;51.038;7.216;2023-07-02T14:23:29;20.90;;;11.57;;
1128;SDS011;553;51.038;7.216;2023-07-02T14:25:56;21.53;;;11.40;;
1128;SDS011;553;51.038;7.216;2023-07-02T14:28:23;18.20;;;10.70;;
1128;SDS011;553;51.038;7.216;2023-07-02T14:30:55;20.53;;;10.57;;
1128;SDS011;553;51.038;7.216;2023-07-02T14:33:26;18.67;;;12.00;;
1128;SDS011;553;51.038;7.216;2023-07-02T14:35:54;21.63;;;12.03;;
1128;SDS011;553;51.038;7.216;2023-07-02T14:38:21;16.47;;;11.43;;
1128;SDS011;553;51.038;7.216;2023-07-02T14:40:49;20.17;;;11.30;;
1128;SDS011;553;51.038;7.216;2023-07-02T14:43:16;15.23;;;10.00;;
1128;SDS011;553;51.038;7.216;2023-07-02T14:45:50;16.33;;;10.97;;
1128;SDS011;553;51.038;7.216;2023-07-02T14:48:18;21.73;;;10.40;;
1128;SDS011;553;51.038;7.216;2023-07-02T14:50:50;20.17;;;11.67;;
1128;SDS011;553;51.038;7.216;2023-07-02T14:53:18;17.43;;;10.00;;
1128;SDS011;553;51.038;7.216;2023-07-02T14:55:46;18.13;;;10.30;;
1128;SDS011;553;51.038;7.216;2023-07-02T14:58:15;18.20;;;11.27;;
1128;SDS011;553;51.038;7.216;2023-07-02T15:00:46;20.73;;;10.10;;
1128;SDS011;553;51.038;7.216;2023-07-02T15:03:14;18.83;;;11.17;;
1128;SDS011;553;51.038;7.216;2023-07-02T15:05:42;21.97;;;12.30;;
1128;SDS011;553;51.038;7.216;2023-07-02T15:08:11;20.60;;;11.10;;
1128;SDS011;553;51.038;7.216;2023-07-02T15:10:39;18.17;;;11.33;;
1128;SDS011;553;51.038;7.216;2023-07-02T15:13:06;16.60;;;11.10;;
1128;SDS011;553;51.038;7.216;2023-07-02T15:15:33;17.63;;;11.73;;
1128;SDS011;553;51.038;7.216;2023-07-02T15:18:05;18.57;;;11.50;;
1128;SDS011;553;51.038;7.216;2023-07-02T15:20:34;20.57;;;11.13;;